createdAt,value
2022-09-10T00:01:40.255Z,83.02
2022-09-10T00:04:12.746Z,83.08
2022-09-10T00:06:42.130Z,83.06
2022-09-10T00:09:12.677Z,83.14
2022-09-10T00:11:42.063Z,83.20
2022-09-10T00:14:15.473Z,83.16
2022-09-10T00:16:43.123Z,83.27
2022-09-10T00:19:13.313Z,83.30
2022-09-10T00:21:42.192Z,83.29
2022-09-10T00:24:10.749Z,83.25
2022-09-10T00:26:40.358Z,83.21
2022-09-10T00:29:12.353Z,83.20
2022-09-10T00:31:40.297Z,83.21
2022-09-10T00:34:13.175Z,83.33
2022-09-10T00:36:44.060Z,83.43
2022-09-10T00:39:16.784Z,83.46
2022-09-10T00:41:48.320Z,83.54
2022-09-10T00:44:42.238Z,83.52
2022-09-10T00:47:17.298Z,83.62
2022-09-10T00:50:05.342Z,83.69
2022-09-10T00:52:39.399Z,83.67
2022-09-10T00:55:12.699Z,83.59
2022-09-10T00:57:43.761Z,83.66
2022-09-10T01:00:14.385Z,83.76
2022-09-10T01:02:44.515Z,83.73
2022-09-10T01:05:15.754Z,83.93
2022-09-10T01:07:44.888Z,84.04
2022-09-10T01:10:29.210Z,84.12
2022-09-10T01:13:19.241Z,84.10
2022-09-10T01:15:55.298Z,84.33
2022-09-10T01:18:42.822Z,84.41
2022-09-10T01:21:14.107Z,84.57
2022-09-10T01:23:42.576Z,84.52
2022-09-10T01:26:50.099Z,84.30
2022-09-10T01:29:39.888Z,84.41
2022-09-10T01:32:15.523Z,84.59
2022-09-10T01:35:21.566Z,84.46
2022-09-10T01:37:56.242Z,84.43
2022-09-10T01:40:30.081Z,84.44
2022-09-10T01:43:07.872Z,84.40
2022-09-10T01:45:49.714Z,84.23
2022-09-10T01:49:00.726Z,84.49
2022-09-10T01:51:55.545Z,84.72
2022-09-10T01:54:40.185Z,84.82
2022-09-10T01:57:48.175Z,84.85
2022-09-10T02:00:20.026Z,84.70
2022-09-10T02:03:20.645Z,84.62
2022-09-10T02:05:53.923Z,84.76
2022-09-10T02:08:31.114Z,84.73
2022-09-10T02:11:07.097Z,84.68
2022-09-10T02:13:35.789Z,84.55
2022-09-10T02:16:09.095Z,84.63
2022-09-10T02:18:40.318Z,84.60
2022-09-10T02:21:12.345Z,84.73
2022-09-10T02:23:54.218Z,84.52
2022-09-10T02:26:24.064Z,84.40
2022-09-10T02:28:53.270Z,84.51
2022-09-10T02:31:21.259Z,84.54
2022-09-10T02:33:52.058Z,84.66
2022-09-10T02:36:21.204Z,84.82
2022-09-10T02:38:49.115Z,84.96
2022-09-10T02:41:18.071Z,85.10
2022-09-10T02:43:46.685Z,85.24
2022-09-10T02:46:15.616Z,85.21
2022-09-10T02:48:44.410Z,85.27
2022-09-10T02:51:12.936Z,85.37
2022-09-10T02:53:40.880Z,85.45
2022-09-10T02:56:10.259Z,85.41
2022-09-10T02:58:40.314Z,85.49
2022-09-10T03:01:15.466Z,85.47
2022-09-10T03:03:50.461Z,85.50
2022-09-10T03:06:19.541Z,85.53
2022-09-10T03:08:48.874Z,85.59
2022-09-10T03:11:18.066Z,85.62
2022-09-10T03:13:46.690Z,85.71
2022-09-10T03:16:17.324Z,85.73
2022-09-10T03:18:46.949Z,85.77
2022-09-10T03:21:20.286Z,85.80
2022-09-10T03:23:51.335Z,85.76
2022-09-10T03:26:22.635Z,85.73
2022-09-10T03:28:50.292Z,85.63
2022-09-10T03:31:19.258Z,85.67
2022-09-10T03:33:47.305Z,85.71
2022-09-10T03:36:16.357Z,85.68
2022-09-10T03:38:53.690Z,85.59
2022-09-10T03:41:21.380Z,85.48
2022-09-10T03:43:50.314Z,85.44
2022-09-10T03:46:18.990Z,85.38
2022-09-10T03:48:50.032Z,85.36
2022-09-10T03:51:21.653Z,85.35
2022-09-10T03:53:49.596Z,85.17
2022-09-10T03:56:21.043Z,85.24
2022-09-10T03:58:49.625Z,85.22
2022-09-10T04:01:19.735Z,85.34
2022-09-10T04:03:48.626Z,85.41
2022-09-10T04:06:17.300Z,85.40
2022-09-10T04:08:51.992Z,85.51
2022-09-10T04:11:20.961Z,85.61
2022-09-10T04:13:49.747Z,85.69
2022-09-10T04:16:18.922Z,85.64
2022-09-10T04:18:47.534Z,85.41
2022-09-10T04:21:15.946Z,85.55
2022-09-10T04:23:46.059Z,85.49
2022-09-10T04:26:18.653Z,85.64
2022-09-10T04:28:46.382Z,85.67
2022-09-10T04:31:15.063Z,85.81
2022-09-10T04:33:45.304Z,85.93
2022-09-10T04:36:13.233Z,85.94
2022-09-10T04:38:42.685Z,85.95
2022-09-10T04:41:11.393Z,86.01
2022-09-10T04:43:39.345Z,86.00
2022-09-10T04:46:08.113Z,86.07
2022-09-10T04:48:36.186Z,85.91
2022-09-10T04:51:16.493Z,85.87
2022-09-10T04:53:47.366Z,85.98
2022-09-10T04:56:15.849Z,86.05
2022-09-10T04:58:45.652Z,86.09
2022-09-10T05:01:14.430Z,86.02
2022-09-10T05:03:43.849Z,86.12
2022-09-10T05:06:12.926Z,86.19
2022-09-10T05:08:41.541Z,86.25
2022-09-10T05:11:10.939Z,86.29
2022-09-10T05:13:40.221Z,86.28
2022-09-10T05:16:08.226Z,86.27
2022-09-10T05:18:36.521Z,86.32
2022-09-10T05:21:06.324Z,86.42
2022-09-10T05:23:34.979Z,86.53
2022-09-10T05:26:02.935Z,86.56
2022-09-10T05:28:31.618Z,86.49
2022-09-10T05:31:00.391Z,86.57
2022-09-10T05:33:29.089Z,86.60
2022-09-10T05:35:56.812Z,86.71
2022-09-10T05:38:25.871Z,86.79
2022-09-10T05:40:54.681Z,86.84
2022-09-10T05:43:23.562Z,86.73
2022-09-10T05:45:53.209Z,86.77
2022-09-10T05:48:21.974Z,86.79
2022-09-10T05:50:51.855Z,86.81
2022-09-10T05:53:19.797Z,86.77
2022-09-10T05:55:50.431Z,86.78
2022-09-10T05:58:18.108Z,86.84
2022-09-10T06:00:55.162Z,86.81
2022-09-10T06:03:23.206Z,86.81
2022-09-10T06:05:52.816Z,86.82
2022-09-10T06:08:22.972Z,86.83
2022-09-10T06:11:07.902Z,86.83
2022-09-10T06:13:39.201Z,86.81
2022-09-10T06:16:07.688Z,86.85
2022-09-10T06:18:35.971Z,86.83
2022-09-10T06:21:09.415Z,86.78
2022-09-10T06:23:37.133Z,86.85
2022-09-10T06:26:10.425Z,86.86
2022-09-10T06:28:39.279Z,86.91
2022-09-10T06:31:12.212Z,86.92
2022-09-10T06:33:41.035Z,86.93
2022-09-10T06:36:11.588Z,86.89
2022-09-10T06:38:41.607Z,86.81
2022-09-10T06:41:13.755Z,86.81
2022-09-10T06:43:42.726Z,86.80
2022-09-10T06:46:56.944Z,86.87
2022-09-10T06:49:06.774Z,86.88
2022-09-10T06:51:35.496Z,86.85
2022-09-10T06:54:04.386Z,86.78
2022-09-10T06:56:33.101Z,86.74
2022-09-10T06:59:02.902Z,86.72
2022-09-10T07:01:32.198Z,86.74
2022-09-10T07:04:03.040Z,86.78
2022-09-10T07:06:36.086Z,86.88
2022-09-10T07:09:06.257Z,86.81
2022-09-10T07:11:41.150Z,86.84
2022-09-10T07:14:14.282Z,86.81
2022-09-10T07:16:43.316Z,86.85
2022-09-10T07:19:17.495Z,86.86
2022-09-10T07:21:45.277Z,86.88
2022-09-10T07:24:15.871Z,86.86
2022-09-10T07:26:45.173Z,86.86
2022-09-10T07:29:13.240Z,86.87
2022-09-10T07:31:44.632Z,86.86
2022-09-10T07:34:15.458Z,86.80
2022-09-10T07:36:43.423Z,86.72
2022-09-10T07:39:11.150Z,86.66
2022-09-10T07:41:38.910Z,86.63
2022-09-10T07:44:06.734Z,86.60
2022-09-10T07:46:34.522Z,86.53
2022-09-10T07:49:02.276Z,86.45
2022-09-10T07:51:33.075Z,86.44
2022-09-10T07:54:00.808Z,86.39
2022-09-10T07:56:33.314Z,86.37
2022-09-10T07:59:03.955Z,86.32
2022-09-10T08:01:33.305Z,86.28
2022-09-10T08:04:01.235Z,86.25
2022-09-10T08:06:32.293Z,86.23
2022-09-10T08:09:06.761Z,86.16
2022-09-10T08:11:36.076Z,86.12
2022-09-10T08:14:03.796Z,85.98
2022-09-10T08:16:34.401Z,85.94
2022-09-10T08:19:03.958Z,85.88
2022-09-10T08:21:31.937Z,85.77
2022-09-10T08:23:59.637Z,85.64
2022-09-10T08:26:29.045Z,85.62
2022-09-10T08:28:58.390Z,85.62
2022-09-10T08:31:27.813Z,85.53
2022-09-10T08:33:59.146Z,85.47
2022-09-10T08:36:27.011Z,85.38
2022-09-10T08:38:59.907Z,85.40
2022-09-10T08:41:55.717Z,85.42
2022-09-10T08:44:29.239Z,85.33
2022-09-10T08:47:15.104Z,85.26
2022-09-10T08:49:54.023Z,85.26
2022-09-10T08:52:34.642Z,85.15
2022-09-10T08:55:17.186Z,85.12
2022-09-10T08:58:06.978Z,85.09
2022-09-10T09:00:39.208Z,85.13
2022-09-10T09:03:27.735Z,84.95
2022-09-10T09:05:59.502Z,84.78
2022-09-10T09:08:34.650Z,84.65
2022-09-10T09:11:08.204Z,84.55
2022-09-10T09:13:58.879Z,84.55
2022-09-10T09:16:45.343Z,84.59
2022-09-10T09:19:24.032Z,84.61
2022-09-10T09:21:56.672Z,84.63
2022-09-10T09:24:39.870Z,84.61
2022-09-10T09:27:14.965Z,84.59
2022-09-10T09:30:06.155Z,84.55
2022-09-10T09:32:40.177Z,84.52
2022-09-10T09:35:25.400Z,84.48
2022-09-10T09:38:08.231Z,84.41
2022-09-10T09:40:47.651Z,84.37
2022-09-10T09:43:26.505Z,84.39
2022-09-10T09:45:54.433Z,84.44
2022-09-10T09:48:25.252Z,84.50
2022-09-10T09:51:00.390Z,84.55
2022-09-10T09:53:31.645Z,84.62
2022-09-10T09:56:04.432Z,84.51
2022-09-10T09:58:35.553Z,84.49
2022-09-10T10:01:07.707Z,84.46
2022-09-10T10:03:52.394Z,84.48
2022-09-10T10:06:45.131Z,84.54
2022-09-10T10:09:39.421Z,84.59
2022-09-10T10:12:15.316Z,84.57
2022-09-10T10:14:44.667Z,84.66
2022-09-10T10:17:34.737Z,84.62
2022-09-10T10:20:09.257Z,84.59
2022-09-10T10:22:41.491Z,84.45
2022-09-10T10:25:35.737Z,84.36
2022-09-10T10:28:24.917Z,84.36
2022-09-10T10:31:01.071Z,84.43
2022-09-10T10:33:35.323Z,84.44
2022-09-10T10:36:16.432Z,84.45
2022-09-10T10:38:58.782Z,84.59
2022-09-10T10:41:41.023Z,84.40
2022-09-10T10:44:32.141Z,84.44
2022-09-10T10:47:23.963Z,84.31
2022-09-10T10:50:05.577Z,84.29
2022-09-10T10:52:56.616Z,84.20
2022-09-10T10:55:42.820Z,84.14
2022-09-10T10:58:39.447Z,84.10
2022-09-10T11:01:30.221Z,84.14
2022-09-10T11:04:16.457Z,84.15
2022-09-10T11:06:50.227Z,84.14
2022-09-10T11:09:43.795Z,84.20
2022-09-10T11:12:21.497Z,84.23
2022-09-10T11:15:02.195Z,84.22
2022-09-10T11:17:35.898Z,84.27
2022-09-10T11:20:29.308Z,84.15
2022-09-10T11:23:14.331Z,84.13
2022-09-10T11:25:59.646Z,83.96
2022-09-10T11:28:38.571Z,83.89
2022-09-10T11:31:17.794Z,83.82
2022-09-10T11:34:13.551Z,83.79
2022-09-10T11:36:54.114Z,83.68
2022-09-10T11:39:38.425Z,83.56
2022-09-10T11:42:20.598Z,83.58
2022-09-10T11:45:03.000Z,83.53
2022-09-10T11:47:39.914Z,83.42
2022-09-10T11:50:25.192Z,83.19
2022-09-10T11:52:53.510Z,83.19
2022-09-10T11:55:26.706Z,83.13
2022-09-10T11:58:33.127Z,83.02
2022-09-10T12:01:30.140Z,83.07
2022-09-10T12:04:22.322Z,82.90
2022-09-10T12:07:18.619Z,82.85
2022-09-10T12:10:02.292Z,82.82
2022-09-10T12:12:34.845Z,82.76
2022-09-10T12:15:20.945Z,82.74
2022-09-10T12:18:01.789Z,82.50
2022-09-10T12:20:43.188Z,82.45
2022-09-10T12:23:18.632Z,82.27
2022-09-10T12:25:58.465Z,82.17
2022-09-10T12:28:42.106Z,82.32
2022-09-10T12:31:12.923Z,82.16
2022-09-10T12:33:46.611Z,82.20
2022-09-10T12:36:34.654Z,82.18
2022-09-10T12:39:20.534Z,82.13
2022-09-10T12:41:48.950Z,81.68
2022-09-10T12:44:39.136Z,81.68
2022-09-10T12:47:18.753Z,81.52
2022-09-10T12:49:55.042Z,81.22
2022-09-10T12:52:34.997Z,81.04
2022-09-10T12:55:14.580Z,81.27
2022-09-10T12:58:13.772Z,81.40
2022-09-10T13:00:54.361Z,81.52
2022-09-10T13:03:28.658Z,81.69
2022-09-10T13:06:00.708Z,81.78
2022-09-10T13:08:41.698Z,81.72
2022-09-10T13:11:23.448Z,81.85
2022-09-10T13:14:02.950Z,81.93
2022-09-10T13:16:30.913Z,81.58
2022-09-10T13:19:13.869Z,81.64
2022-09-10T13:21:45.109Z,81.75
2022-09-10T13:24:37.093Z,81.64
2022-09-10T13:27:13.083Z,81.50
2022-09-10T13:30:09.842Z,81.42
2022-09-10T13:33:07.799Z,81.46
2022-09-10T13:36:07.825Z,81.42
2022-09-10T13:38:44.407Z,81.50
2022-09-10T13:41:27.308Z,81.56
2022-09-10T13:44:13.776Z,81.44
2022-09-10T13:46:48.049Z,81.49
2022-09-10T13:49:37.860Z,81.63
2022-09-10T13:52:15.672Z,81.71
2022-09-10T13:54:56.580Z,81.87
2022-09-10T13:57:41.306Z,81.86
2022-09-10T14:00:18.909Z,81.91
2022-09-10T14:03:00.283Z,82.07
2022-09-10T14:05:36.726Z,82.15
2022-09-10T14:08:12.518Z,82.16
2022-09-10T14:11:02.760Z,82.07
2022-09-10T14:13:38.722Z,82.07
2022-09-10T14:16:12.363Z,82.02
2022-09-10T14:18:46.198Z,82.19
2022-09-10T14:21:17.370Z,82.36
2022-09-10T14:23:49.012Z,82.46
2022-09-10T14:26:27.877Z,82.49
2022-09-10T14:29:03.549Z,82.68
2022-09-10T14:31:38.283Z,82.64
2022-09-10T14:34:37.350Z,82.74
2022-09-10T14:37:32.426Z,82.85
2022-09-10T14:40:17.912Z,82.96
2022-09-10T14:42:49.437Z,83.03
2022-09-10T14:45:42.012Z,82.85
2022-09-10T14:48:59.390Z,82.74
2022-09-10T14:51:29.544Z,82.70
2022-09-10T14:54:00.143Z,82.76
2022-09-10T14:56:44.070Z,82.84
2022-09-10T14:59:17.845Z,82.95
2022-09-10T15:01:50.506Z,82.97
2022-09-10T15:04:30.892Z,82.95
2022-09-10T15:07:02.779Z,83.10
2022-09-10T15:09:33.386Z,82.99
2022-09-10T15:12:05.857Z,83.01
2022-09-10T15:14:36.897Z,82.91
2022-09-10T15:17:05.520Z,83.00
2022-09-10T15:19:33.977Z,82.93
2022-09-10T15:22:01.899Z,82.95
2022-09-10T15:24:29.847Z,83.09
2022-09-10T15:26:58.202Z,83.26
2022-09-10T15:29:28.190Z,83.15
2022-09-10T15:32:01.484Z,83.19
2022-09-10T15:34:29.998Z,83.26
2022-09-10T15:37:00.595Z,83.36
2022-09-10T15:39:31.225Z,83.43
2022-09-10T15:42:04.724Z,83.45
2022-09-10T15:44:35.050Z,83.51
2022-09-10T15:47:02.974Z,83.51
2022-09-10T15:49:30.679Z,83.75
2022-09-10T15:52:00.383Z,83.93
2022-09-10T15:54:30.256Z,83.95
2022-09-10T15:57:01.262Z,83.79
2022-09-10T15:59:31.293Z,83.92
2022-09-10T16:02:00.878Z,84.13
2022-09-10T16:04:36.190Z,84.30
2022-09-10T16:07:10.011Z,84.43
2022-09-10T16:09:37.920Z,84.49
2022-09-10T16:12:08.302Z,84.59
2022-09-10T16:14:36.683Z,84.63
2022-09-10T16:17:12.434Z,84.86
2022-09-10T16:19:40.303Z,85.07
2022-09-10T16:22:08.635Z,84.95
2022-09-10T16:24:37.001Z,85.07
2022-09-10T16:27:04.950Z,85.26
2022-09-10T16:29:32.917Z,85.28
2022-09-10T16:32:02.861Z,85.28
2022-09-10T16:34:33.128Z,85.01
2022-09-10T16:37:01.064Z,85.05
2022-09-10T16:39:30.907Z,85.11
2022-09-10T16:41:58.650Z,85.23
2022-09-10T16:44:30.990Z,85.25
2022-09-10T16:47:01.365Z,85.44
2022-09-10T16:49:29.095Z,85.55
2022-09-10T16:52:00.740Z,85.45
2022-09-10T16:54:33.978Z,85.45
2022-09-10T16:57:04.123Z,85.44
2022-09-10T16:59:31.819Z,85.30
2022-09-10T17:02:02.632Z,85.43
2022-09-10T17:04:34.451Z,85.47
2022-09-10T17:07:04.733Z,85.55
2022-09-10T17:09:34.613Z,85.57
2022-09-10T17:12:02.453Z,85.48
2022-09-10T17:14:32.102Z,85.37
2022-09-10T17:17:01.974Z,85.30
2022-09-10T17:19:30.290Z,85.40
2022-09-10T17:21:58.220Z,85.43
2022-09-10T17:24:27.379Z,85.28
2022-09-10T17:26:57.885Z,85.18
2022-09-10T17:29:28.371Z,85.32
2022-09-10T17:31:59.310Z,85.53
2022-09-10T17:34:28.763Z,85.49
2022-09-10T17:36:57.158Z,85.44
2022-09-10T17:39:30.281Z,85.41
2022-09-10T17:41:59.566Z,85.54
2022-09-10T17:44:27.825Z,85.72
2022-09-10T17:46:55.753Z,85.67
2022-09-10T17:49:24.975Z,85.60
2022-09-10T17:51:55.319Z,85.48
2022-09-10T17:54:24.756Z,85.69
2022-09-10T17:56:54.612Z,85.81
2022-09-10T17:59:22.993Z,85.90
2022-09-10T18:01:52.788Z,85.99
2022-09-10T18:04:23.520Z,86.06
2022-09-10T18:06:52.573Z,86.21
2022-09-10T18:09:22.649Z,86.31
2022-09-10T18:11:52.093Z,86.35
2022-09-10T18:14:21.869Z,86.41
2022-09-10T18:16:52.235Z,86.51
2022-09-10T18:19:20.170Z,86.52
2022-09-10T18:21:52.934Z,86.55
2022-09-10T18:24:25.154Z,86.56
2022-09-10T18:26:55.543Z,86.60
2022-09-10T18:29:26.364Z,86.64
2022-09-10T18:31:58.823Z,86.70
2022-09-10T18:34:30.219Z,86.76
2022-09-10T18:37:01.145Z,86.81
2022-09-10T18:39:33.636Z,86.87
2022-09-10T18:42:03.750Z,86.86
2022-09-10T18:44:36.483Z,86.85
2022-09-10T18:47:22.664Z,86.82
2022-09-10T18:50:03.954Z,86.82
2022-09-10T18:52:31.878Z,86.78
2022-09-10T18:55:00.171Z,86.76
2022-09-10T18:57:28.482Z,86.70
2022-09-10T18:59:58.412Z,86.65
2022-09-10T19:02:26.433Z,86.66
2022-09-10T19:05:10.861Z,86.63
2022-09-10T19:07:41.643Z,86.53
2022-09-10T19:10:11.577Z,86.46
2022-09-10T19:12:42.560Z,86.40
2022-09-10T19:15:12.913Z,86.36
2022-09-10T19:17:41.432Z,86.36
2022-09-10T19:20:11.694Z,86.35
2022-09-10T19:22:44.885Z,86.28
2022-09-10T19:25:13.173Z,86.31
2022-09-10T19:27:47.069Z,86.28
2022-09-10T19:30:14.906Z,86.29
2022-09-10T19:32:42.820Z,86.28
2022-09-10T19:35:13.432Z,86.38
2022-09-10T19:37:41.502Z,86.40
2022-09-10T19:40:12.440Z,86.39
2022-09-10T19:42:40.228Z,86.29
2022-09-10T19:45:12.730Z,86.25
2022-09-10T19:47:40.450Z,86.20
2022-09-10T19:50:10.407Z,86.19
2022-09-10T19:52:38.372Z,86.24
2022-09-10T19:55:08.473Z,86.22
2022-09-10T19:57:39.113Z,86.18
2022-09-10T20:00:17.197Z,86.20
2022-09-10T20:02:57.628Z,86.23
2022-09-10T20:05:27.408Z,86.33
2022-09-10T20:07:55.289Z,86.44
2022-09-10T20:10:23.207Z,86.52
2022-09-10T20:12:51.174Z,86.61
2022-09-10T20:15:20.970Z,86.71
2022-09-10T20:17:51.573Z,86.75
2022-09-10T20:20:21.474Z,86.90
2022-09-10T20:22:49.442Z,86.99
2022-09-10T20:25:19.701Z,87.08
2022-09-10T20:27:48.241Z,87.11
2022-09-10T20:30:17.213Z,87.15
2022-09-10T20:32:47.998Z,87.18
2022-09-10T20:35:16.570Z,87.20
2022-09-10T20:37:51.207Z,87.18
2022-09-10T20:40:21.548Z,87.18
2022-09-10T20:42:52.730Z,87.18
2022-09-10T20:45:24.514Z,87.17
2022-09-10T20:47:54.932Z,87.15
2022-09-10T20:50:24.781Z,87.16
2022-09-10T20:52:52.666Z,87.14
2022-09-10T20:55:20.360Z,87.11
2022-09-10T20:57:50.366Z,87.14
2022-09-10T21:00:18.612Z,87.16
2022-09-10T21:02:48.806Z,87.21
2022-09-10T21:05:16.619Z,87.19
2022-09-10T21:07:48.496Z,87.21
2022-09-10T21:10:16.500Z,87.22
2022-09-10T21:12:44.411Z,87.22
2022-09-10T21:15:12.580Z,87.21
2022-09-10T21:17:40.510Z,87.15
2022-09-10T21:20:14.254Z,87.17
2022-09-10T21:22:46.700Z,87.15
2022-09-10T21:25:19.233Z,87.07
2022-09-10T21:27:49.192Z,87.01
2022-09-10T21:30:18.929Z,87.00
2022-09-10T21:32:46.634Z,87.00
2022-09-10T21:35:14.511Z,86.94
2022-09-10T21:37:44.350Z,86.78
2022-09-10T21:40:12.099Z,86.82
2022-09-10T21:42:41.755Z,86.94
2022-09-10T21:45:12.102Z,86.95
2022-09-10T21:47:39.853Z,86.95
2022-09-10T21:50:09.690Z,86.98
2022-09-10T21:52:37.649Z,86.97
2022-09-10T21:55:07.721Z,86.98
2022-09-10T21:57:37.478Z,86.97
2022-09-10T22:00:10.015Z,86.97
2022-09-10T22:02:38.877Z,86.98
2022-09-10T22:05:10.428Z,86.96
2022-09-10T22:07:38.385Z,87.00
2022-09-10T22:10:09.437Z,87.01
2022-09-10T22:12:40.621Z,87.06
2022-09-10T22:15:10.700Z,87.10
2022-09-10T22:17:38.674Z,87.20
2022-09-10T22:20:09.278Z,87.22
2022-09-10T22:22:37.211Z,87.24
2022-09-10T22:25:07.798Z,87.23
2022-09-10T22:27:40.578Z,87.22
2022-09-10T22:30:10.733Z,87.24
2022-09-10T22:32:41.633Z,87.23
2022-09-10T22:35:09.740Z,87.24
2022-09-10T22:37:38.113Z,87.19
2022-09-10T22:40:09.524Z,87.24
2022-09-10T22:42:37.458Z,87.27
2022-09-10T22:45:07.732Z,87.31
2022-09-10T22:47:35.577Z,87.35
2022-09-10T22:50:03.362Z,87.41
2022-09-10T22:52:36.137Z,87.44
2022-09-10T22:55:06.516Z,87.46
2022-09-10T22:57:34.245Z,87.44
2022-09-10T23:00:04.546Z,87.44
2022-09-10T23:02:34.161Z,87.52
2022-09-10T23:05:07.036Z,87.52
2022-09-10T23:07:34.726Z,87.61
2022-09-10T23:10:06.351Z,87.69
2022-09-10T23:12:34.599Z,87.71
2022-09-10T23:15:02.970Z,87.54
2022-09-10T23:17:31.087Z,87.68
2022-09-10T23:19:59.023Z,87.80
2022-09-10T23:22:26.941Z,87.87
2022-09-10T23:24:54.950Z,87.92
2022-09-10T23:27:25.305Z,87.95
2022-09-10T23:29:53.232Z,87.94
2022-09-10T23:32:21.116Z,87.95
2022-09-10T23:34:52.488Z,88.00
2022-09-10T23:37:20.967Z,88.02
2022-09-10T23:39:51.393Z,88.01
2022-09-10T23:42:19.095Z,87.99
2022-09-10T23:44:47.014Z,88.02
2022-09-10T23:47:15.111Z,88.06
2022-09-10T23:49:45.011Z,88.13
2022-09-10T23:52:12.676Z,88.12
2022-09-10T23:54:40.580Z,88.11
2022-09-10T23:57:08.942Z,88.13
2022-09-10T23:59:36.626Z,88.13
